Time;durP1;ratioP1;P1;durP2;ratioP2;P2;SDS_P1;SDS_P2;PMS_P1;PMS_P2;Temp;Humidity;BMP_temperature;BMP_pressure;BME280_temperature;BME280_humidity;BME280_pressure;Samples;Min_cycle;Max_cycle;Signal;HPM_P1;HPM_P2
2022/03/30 00:00:37;;;;;;;;;;;;;;;;;;2065928;28;19976;-79
2022/03/30 00:01:40;;;;;;;;;;;;;;;;;;2065824;28;19957;-79
2022/03/30 00:02:41;;;;;;;;;;;;;;;;;;2074408;28;19996;-79
2022/03/30 00:03:52;;;;;;;;;;;;;;;;;;2074434;28;19964;-81
2022/03/30 00:05:02;;;;;;;;;;;;;;;;;;2077196;28;20464;-79
2022/03/30 00:06:05;;;;;;;;;;;;;;;;;;2074446;28;19928;-80
2022/03/30 00:07:06;;;;;;;;;;;;;;;;;;2074440;28;20396;-80
2022/03/30 00:08:16;;;;;;;;;;;;;;;;;;2074211;28;19948;-79
2022/03/30 00:09:18;;;;;;;;;;;;;;;;;;2074390;28;20357;-80
2022/03/30 00:10:19;;;;;;;;;;;;;;;;;;2074286;28;19917;-80
2022/03/30 00:11:22;;;;;;;;;;;;;;;;;;2074416;28;20447;-79
2022/03/30 00:12:25;;;;;;;;;;;;;;;;;;2074574;28;20012;-81
2022/03/30 00:13:28;;;;;;;;;;;;;;;;;;2074249;28;19913;-80
2022/03/30 00:14:37;;;;;;;;;;;;;;;;;;2065669;28;19914;-80
2022/03/30 00:15:37;;;;;;;;;;;;;;;;;;2066803;28;20442;-80
2022/03/30 00:16:41;;;;;;;;;;;;;;;;;;2074383;28;19921;-80
2022/03/30 00:17:41;;;;;;;;;;;;;;;;;;2074407;28;19936;-80
2022/03/30 00:18:41;;;;;;;;;;;;;;;;;;2074364;28;19914;-80
2022/03/30 00:19:41;;;;;;;;;;;;;;;;;;2073736;28;20385;-80
2022/03/30 00:20:42;;;;;;;;;;;;;;;;;;2074271;28;19921;-80
2022/03/30 00:21:42;;;;;;;;;;;;;;;;;;2074261;28;20066;-80
2022/03/30 00:22:43;;;;;;;;;;;;;;;;;;2065709;28;19920;-80
2022/03/30 00:23:43;;;;;;;;;;;;;;;;;;2065719;28;19914;-80
2022/03/30 00:24:46;;;;;;;;;;;;;;;;;;2065688;28;19949;-80
2022/03/30 00:25:46;;;;;;;;;;;;;;;;;;2074222;28;20251;-80
2022/03/30 00:26:47;;;;;;;;;;;;;;;;;;2074233;28;19963;-80
2022/03/30 00:27:47;;;;;;;;;;;;;;;;;;2074330;28;19928;-80
2022/03/30 00:28:47;;;;;;;;;;;;;;;;;;2074240;28;19913;-80
2022/03/30 00:29:48;;;;;;;;;;;;;;;;;;2074356;28;19971;-81
2022/03/30 00:30:51;;;;;;;;;;;;;;;;;;2074404;28;19960;-80
2022/03/30 00:31:54;;;;;;;;;;;;;;;;;;2074214;28;19925;-81
2022/03/30 00:32:59;;;;;;;;;;;;;;;;;;2065583;28;19918;-80
2022/03/30 00:34:09;;;;;;;;;;;;;;;;;;2069078;28;19918;-80
2022/03/30 00:35:20;;;;;;;;;;;;;;;;;;;;;
2022/03/30 00:36:30;;;;;;;;;;;;;;;;;;2073950;28;19913;-78
2022/03/30 00:37:38;;;;;;;;;;;;;;;;;;2077028;28;19913;-80
2022/03/30 00:38:41;;;;;;;;;;;;;;;;;;2076928;28;19945;-80
2022/03/30 00:39:42;;;;;;;;;;;;;;;;;;2074204;28;19913;-79
2022/03/30 00:40:42;;;;;;;;;;;;;;;;;;2074143;28;19952;-79
2022/03/30 00:42:00;;;;;;;;;;;;;;;;;;2074155;28;19944;-79
2022/03/30 00:43:00;;;;;;;;;;;;;;;;;;2076284;28;20333;-80
2022/03/30 00:44:10;;;;;;;;;;;;;;;;;;2074225;28;19967;-79
2022/03/30 00:45:12;;;;;;;;;;;;;;;;;;2074130;28;20015;-80
2022/03/30 00:46:15;;;;;;;;;;;;;;;;;;2065546;28;19925;-79
2022/03/30 00:47:22;;;;;;;;;;;;;;;;;;2065940;28;20004;-79
2022/03/30 00:48:25;;;;;;;;;;;;;;;;;;2065446;28;19918;-80
2022/03/30 00:49:25;;;;;;;;;;;;;;;;;;2065402;28;20343;-81
2022/03/30 00:50:28;;;;;;;;;;;;;;;;;;2065596;28;19913;-80
2022/03/30 00:51:28;;;;;;;;;;;;;;;;;;2074022;28;20085;-80
2022/03/30 00:52:30;;;;;;;;;;;;;;;;;;2065528;28;19938;-80
2022/03/30 00:53:31;;;;;;;;;;;;;;;;;;2065791;28;19914;-80
2022/03/30 00:54:39;;;;;;;;;;;;;;;;;;2065382;28;19925;-80
2022/03/30 00:55:39;;;;;;;;;;;;;;;;;;2066462;28;19922;-80
2022/03/30 00:56:42;;;;;;;;;;;;;;;;;;2073976;28;19921;-80
2022/03/30 00:57:49;;;;;;;;;;;;;;;;;;2065449;28;19953;-78
2022/03/30 00:58:54;;;;;;;;;;;;;;;;;;2065444;28;19914;-80
2022/03/30 00:59:55;;;;;;;;;;;;;;;;;;2065297;28;20354;-80
2022/03/30 01:01:00;;;;;;;;;;;;;;;;;;2065579;28;20279;-80
2022/03/30 01:02:01;;;;;;;;;;;;;;;;;;2065384;28;19924;-80
2022/03/30 01:03:01;;;;;;;;;;;;;;;;;;2065667;28;20300;-80
2022/03/30 01:04:09;;;;;;;;;;;;;;;;;;2073934;28;19914;-79
2022/03/30 01:05:13;;;;;;;;;;;;;;;;;;2073949;28;19968;-80
2022/03/30 01:06:13;;;;;;;;;;;;;;;;;;2065183;28;19918;-80
2022/03/30 01:07:14;;;;;;;;;;;;;;;;;;2065459;28;19917;-79
2022/03/30 01:08:14;;;;;;;;;;;;;;;;;;2065363;28;20343;-79
2022/03/30 01:09:14;;;;;;;;;;;;;;;;;;2065582;28;19917;-78
2022/03/30 01:10:16;;;;;;;;;;;;;;;;;;2065308;28;19914;-80
2022/03/30 01:11:16;;;;;;;;;;;;;;;;;;2065320;28;19918;-80
2022/03/30 01:12:17;;;;;;;;;;;;;;;;;;2065294;28;19949;-79
2022/03/30 01:13:26;;;;;;;;;;;;;;;;;;2065431;28;19960;-80
2022/03/30 01:14:33;;;;;;;;;;;;;;;;;;2065379;28;19917;-80
2022/03/30 01:15:49;;;;;;;;;;;;;;;;;;2066324;28;19914;-80
2022/03/30 01:16:54;;;;;;;;;;;;;;;;;;2073978;28;19925;-79
2022/03/30 01:17:54;;;;;;;;;;;;;;;;;;2065244;28;19917;-80
2022/03/30 01:19:01;;;;;;;;;;;;;;;;;;2065248;28;20509;-80
2022/03/30 01:20:12;;;;;;;;;;;;;;;;;;2065233;28;19913;-80
2022/03/30 01:21:14;;;;;;;;;;;;;;;;;;2066671;28;19914;-80
2022/03/30 01:22:19;;;;;;;;;;;;;;;;;;2074080;28;19980;-80
2022/03/30 01:23:22;;;;;;;;;;;;;;;;;;2073784;28;19921;-80
2022/03/30 01:24:22;;;;;;;;;;;;;;;;;;2073974;28;20431;-80
2022/03/30 01:25:43;;;;;;;;;;;;;;;;;;;;;
2022/03/30 01:26:56;;;;;;;;;;;;;;;;;;2068095;28;19977;-80
2022/03/30 01:28:08;;;;;;;;;;;;;;;;;;2076650;28;19913;-80
2022/03/30 01:33:06;;;;;;;;;;;;;;;;;;2074040;28;19913;-79
2022/03/30 01:34:07;;;;;;;;;;;;;;;;;;2065150;28;19914;-79
2022/03/30 01:35:10;;;;;;;;;;;;;;;;;;2065068;28;20295;-79
2022/03/30 01:36:11;;;;;;;;;;;;;;;;;;2065418;28;19929;-78
2022/03/30 01:37:15;;;;;;;;;;;;;;;;;;2065115;28;19925;-79
2022/03/30 01:38:18;;;;;;;;;;;;;;;;;;2065867;28;19918;-79
2022/03/30 01:39:18;;;;;;;;;;;;;;;;;;2073826;28;19913;-79
2022/03/30 01:40:18;;;;;;;;;;;;;;;;;;2073797;28;19917;-79
2022/03/30 01:41:19;;;;;;;;;;;;;;;;;;2073699;28;19913;-79
2022/03/30 01:42:19;;;;;;;;;;;;;;;;;;2065081;28;19984;-79
2022/03/30 01:43:22;;;;;;;;;;;;;;;;;;2065154;28;20351;-79
2022/03/30 01:44:25;;;;;;;;;;;;;;;;;;2065126;28;19918;-79
2022/03/30 01:45:28;;;;;;;;;;;;;;;;;;2065372;28;20286;-79
2022/03/30 01:46:28;;;;;;;;;;;;;;;;;;2073608;28;19917;-80
2022/03/30 01:47:29;;;;;;;;;;;;;;;;;;2073727;28;19982;-79
2022/03/30 01:48:32;;;;;;;;;;;;;;;;;;2073546;28;20000;-79
2022/03/30 01:49:35;;;;;;;;;;;;;;;;;;2073617;28;19917;-80
2022/03/30 01:50:36;;;;;;;;;;;;;;;;;;2064891;28;19922;-79
2022/03/30 01:51:42;;;;;;;;;;;;;;;;;;2057080;28;19918;-80
2022/03/30 01:52:53;;;;;;;;;;;;;;;;;;2065752;28;20306;-80
2022/03/30 01:53:56;;;;;;;;;;;;;;;;;;2076316;28;19913;-79
2022/03/30 01:54:56;;;;;;;;;;;;;;;;;;2073617;28;19924;-78
2022/03/30 01:55:59;;;;;;;;;;;;;;;;;;2073565;28;19913;-79
2022/03/30 01:56:59;;;;;;;;;;;;;;;;;;2073765;28;19978;-79
2022/03/30 01:58:16;;;;;;;;;;;;;;;;;;2065010;28;19917;-79
2022/03/30 01:59:19;;;;;;;;;;;;;;;;;;2070067;28;20005;-80
2022/03/30 02:00:19;;;;;;;;;;;;;;;;;;2064841;28;20404;-80
2022/03/30 02:01:20;;;;;;;;;;;;;;;;;;2064926;28;19914;-80
2022/03/30 02:02:40;;;;;;;;;;;;;;;;;;2064963;28;19914;-80
2022/03/30 02:03:44;;;;;;;;;;;;;;;;;;2064978;28;19913;-80
2022/03/30 02:04:56;;;;;;;;;;;;;;;;;;;;;
2022/03/30 02:06:02;;;;;;;;;;;;;;;;;;2066461;28;19913;-80
2022/03/30 02:07:33;;;;;;;;;;;;;;;;;;2074904;28;19929;-80
2022/03/30 02:08:36;;;;;;;;;;;;;;;;;;2064833;28;20370;-80
2022/03/30 02:09:37;;;;;;;;;;;;;;;;;;2064808;28;19913;-80
2022/03/30 02:10:38;;;;;;;;;;;;;;;;;;2057011;28;19976;-80
2022/03/30 02:11:44;;;;;;;;;;;;;;;;;;2056671;28;19919;-80
2022/03/30 02:12:44;;;;;;;;;;;;;;;;;;2065673;28;19918;-80
2022/03/30 02:13:47;;;;;;;;;;;;;;;;;;2064886;28;19980;-80
2022/03/30 02:15:03;;;;;;;;;;;;;;;;;;2065224;28;20008;-80
2022/03/30 02:16:04;;;;;;;;;;;;;;;;;;2073481;28;20327;-80
2022/03/30 02:17:14;;;;;;;;;;;;;;;;;;2073545;28;19917;-79
2022/03/30 02:18:19;;;;;;;;;;;;;;;;;;2076166;28;20008;-79
2022/03/30 02:19:22;;;;;;;;;;;;;;;;;;2073506;28;20267;-79
2022/03/30 02:20:31;;;;;;;;;;;;;;;;;;2073445;28;20000;-80
2022/03/30 02:21:41;;;;;;;;;;;;;;;;;;2073358;28;19913;-80
2022/03/30 02:22:43;;;;;;;;;;;;;;;;;;2076156;28;19914;-80
2022/03/30 02:25:16;;;;;;;;;;;;;;;;;;2073679;28;19931;-80
2022/03/30 02:26:35;;;;;;;;;;;;;;;;;;2073355;28;19925;-80
2022/03/30 02:27:36;;;;;;;;;;;;;;;;;;2074185;28;19917;-80
2022/03/30 02:28:40;;;;;;;;;;;;;;;;;;2064800;28;19952;-79
2022/03/30 02:30:08;;;;;;;;;;;;;;;;;;;;;
2022/03/30 02:31:14;;;;;;;;;;;;;;;;;;2073247;28;19924;-80
2022/03/30 02:32:23;;;;;;;;;;;;;;;;;;2064876;28;19965;-80
2022/03/30 02:33:26;;;;;;;;;;;;;;;;;;2064797;28;19940;-80
2022/03/30 02:34:26;;;;;;;;;;;;;;;;;;2065131;28;19914;-80
2022/03/30 02:35:30;;;;;;;;;;;;;;;;;;2073290;28;19936;-80
2022/03/30 02:36:30;;;;;;;;;;;;;;;;;;2073351;28;19917;-80
2022/03/30 02:37:41;;;;;;;;;;;;;;;;;;2073331;28;20387;-80
2022/03/30 02:38:47;;;;;;;;;;;;;;;;;;2073672;28;20385;-79
2022/03/30 02:39:50;;;;;;;;;;;;;;;;;;2064776;28;19914;-80
2022/03/30 02:41:06;;;;;;;;;;;;;;;;;;2065051;28;20506;-79
2022/03/30 02:42:11;;;;;;;;;;;;;;;;;;2075615;28;19914;-79
2022/03/30 02:43:17;;;;;;;;;;;;;;;;;;2064482;28;19915;-79
2022/03/30 02:44:22;;;;;;;;;;;;;;;;;;2067434;28;19914;-79
2022/03/30 02:45:34;;;;;;;;;;;;;;;;;;2064762;28;19917;-80
2022/03/30 02:46:42;;;;;;;;;;;;;;;;;;2068033;28;20240;-80
2022/03/30 02:49:07;;;;;;;;;;;;;;;;;;2073328;28;19921;-79
2022/03/30 02:50:07;;;;;;;;;;;;;;;;;;2073504;28;20012;-79
2022/03/30 02:51:09;;;;;;;;;;;;;;;;;;2064516;28;19914;-80
2022/03/30 02:52:09;;;;;;;;;;;;;;;;;;2065090;28;19918;-80
2022/03/30 02:53:10;;;;;;;;;;;;;;;;;;2064562;28;20504;-79
2022/03/30 02:54:13;;;;;;;;;;;;;;;;;;2064804;28;20290;-79
2022/03/30 02:55:13;;;;;;;;;;;;;;;;;;2064669;28;19933;-79
2022/03/30 02:56:18;;;;;;;;;;;;;;;;;;2064755;28;20390;-80
2022/03/30 02:57:21;;;;;;;;;;;;;;;;;;2073334;28;20285;-79
2022/03/30 02:58:25;;;;;;;;;;;;;;;;;;2064633;28;19925;-79
2022/03/30 02:59:27;;;;;;;;;;;;;;;;;;2065248;28;19930;-79
2022/03/30 03:00:31;;;;;;;;;;;;;;;;;;2073398;28;20028;-79
2022/03/30 03:01:31;;;;;;;;;;;;;;;;;;2073305;28;19914;-79
2022/03/30 03:02:32;;;;;;;;;;;;;;;;;;2073179;28;19920;-79
2022/03/30 03:03:34;;;;;;;;;;;;;;;;;;2064671;28;20383;-79
2022/03/30 03:04:38;;;;;;;;;;;;;;;;;;2064679;28;19926;-79
2022/03/30 03:05:41;;;;;;;;;;;;;;;;;;2065091;28;19914;-80
2022/03/30 03:06:44;;;;;;;;;;;;;;;;;;2064633;28;19914;-78
2022/03/30 03:07:44;;;;;;;;;;;;;;;;;;2064955;28;19928;-79
2022/03/30 03:08:44;;;;;;;;;;;;;;;;;;2073237;28;19949;-78
2022/03/30 03:09:47;;;;;;;;;;;;;;;;;;2073270;28;19983;-79
2022/03/30 03:10:50;;;;;;;;;;;;;;;;;;2073196;28;19913;-79
2022/03/30 03:11:51;;;;;;;;;;;;;;;;;;2064449;28;19918;-79
2022/03/30 03:12:51;;;;;;;;;;;;;;;;;;2064884;28;19918;-79
2022/03/30 03:14:05;;;;;;;;;;;;;;;;;;;;;
2022/03/30 03:15:08;;;;;;;;;;;;;;;;;;2073181;28;20298;-79
2022/03/30 03:16:10;;;;;;;;;;;;;;;;;;2073052;28;20278;-79
2022/03/30 03:17:13;;;;;;;;;;;;;;;;;;2073110;28;19936;-79
2022/03/30 03:18:14;;;;;;;;;;;;;;;;;;2073354;28;19924;-79
2022/03/30 03:19:32;;;;;;;;;;;;;;;;;;2064626;28;20405;-79
2022/03/30 03:20:35;;;;;;;;;;;;;;;;;;2067117;28;19978;-79
2022/03/30 03:22:00;;;;;;;;;;;;;;;;;;2073226;28;20287;-79
2022/03/30 03:23:08;;;;;;;;;;;;;;;;;;2075932;28;19925;-80
2022/03/30 03:24:17;;;;;;;;;;;;;;;;;;2073179;28;19914;-80
2022/03/30 03:25:20;;;;;;;;;;;;;;;;;;2073418;28;20008;-80
2022/03/30 03:26:21;;;;;;;;;;;;;;;;;;2073049;28;19924;-80
2022/03/30 03:27:29;;;;;;;;;;;;;;;;;;2064734;28;20299;-80
2022/03/30 03:28:51;;;;;;;;;;;;;;;;;;2065741;28;19914;-80
2022/03/30 03:29:54;;;;;;;;;;;;;;;;;;2073148;28;19914;-80
2022/03/30 03:30:59;;;;;;;;;;;;;;;;;;2073204;28;19914;-80
2022/03/30 03:32:22;;;;;;;;;;;;;;;;;;2075918;28;20381;-81
2022/03/30 03:33:49;;;;;;;;;;;;;;;;;;2073357;28;19945;-80
2022/03/30 03:34:58;;;;;;;;;;;;;;;;;;2069392;28;19914;-80
2022/03/30 03:36:02;;;;;;;;;;;;;;;;;;2074284;28;19996;-79
2022/03/30 03:37:05;;;;;;;;;;;;;;;;;;2073232;28;19925;-79
2022/03/30 03:38:14;;;;;;;;;;;;;;;;;;2064571;28;19928;-80
2022/03/30 03:39:17;;;;;;;;;;;;;;;;;;2065814;28;20035;-80
2022/03/30 03:40:20;;;;;;;;;;;;;;;;;;2064686;28;20019;-79
2022/03/30 03:41:28;;;;;;;;;;;;;;;;;;2065097;28;19914;-79
2022/03/30 03:42:52;;;;;;;;;;;;;;;;;;2064686;28;20401;-80
2022/03/30 03:43:51;;;;;;;;;;;;;;;;;;2066659;28;19913;-79
2022/03/30 03:44:51;;;;;;;;;;;;;;;;;;2064319;28;19914;-80
2022/03/30 03:46:03;;;;;;;;;;;;;;;;;;2056434;28;19925;-79
2022/03/30 03:48:33;;;;;;;;;;;;;;;;;;2047929;29;19923;-79
2022/03/30 03:49:39;;;;;;;;;;;;;;;;;;2048167;28;20364;-79
2022/03/30 03:50:39;;;;;;;;;;;;;;;;;;2062534;28;19913;-79
2022/03/30 03:51:43;;;;;;;;;;;;;;;;;;2064313;28;19918;-80
2022/03/30 03:52:48;;;;;;;;;;;;;;;;;;2064941;28;19941;-78
2022/03/30 03:54:06;;;;;;;;;;;;;;;;;;;;;
2022/03/30 03:55:40;;;;;;;;;;;;;;;;;;2073712;28;19979;-79
2022/03/30 03:56:56;;;;;;;;;;;;;;;;;;2077435;28;19914;-80
2022/03/30 03:58:06;;;;;;;;;;;;;;;;;;2065934;28;20334;-81
2022/03/30 03:59:19;;;;;;;;;;;;;;;;;;2059260;28;19914;-79
2022/03/30 04:00:27;;;;;;;;;;;;;;;;;;2067806;28;19913;-81
2022/03/30 04:01:58;;;;;;;;;;;;;;;;;;;;;
2022/03/30 04:03:00;;;;;;;;;;;;;;;;;;2070351;28;19924;-80
2022/03/30 04:04:31;;;;;;;;;;;;;;;;;;2074652;28;19913;-80
2022/03/30 04:06:01;;;;;;;;;;;;;;;;;;;;;
2022/03/30 04:07:19;;;;;;;;;;;;;;;;;;2070062;28;20325;-81
2022/03/30 04:09:50;;;;;;;;;;;;;;;;;;2074355;28;20426;-79
2022/03/30 04:12:42;;;;;;;;;;;;;;;;;;2067120;28;20004;-79
2022/03/30 04:14:05;;;;;;;;;;;;;;;;;;2074057;28;20270;-80
2022/03/30 04:15:13;;;;;;;;;;;;;;;;;;2065887;28;19918;-80
2022/03/30 04:17:45;;;;;;;;;;;;;;;;;;2089221;28;19929;-80
2022/03/30 04:18:49;;;;;;;;;;;;;;;;;;2072350;28;20183;-79
2022/03/30 04:19:49;;;;;;;;;;;;;;;;;;2074175;28;20381;-79
2022/03/30 04:21:08;;;;;;;;;;;;;;;;;;2073915;28;20000;-79
2022/03/30 04:22:19;;;;;;;;;;;;;;;;;;2084616;28;19917;-79
2022/03/30 04:23:29;;;;;;;;;;;;;;;;;;2091038;28;19923;-79
2022/03/30 04:24:37;;;;;;;;;;;;;;;;;;2093131;28;20352;-79
2022/03/30 04:25:45;;;;;;;;;;;;;;;;;;2090975;28;20000;-79
2022/03/30 04:26:48;;;;;;;;;;;;;;;;;;2081938;28;19923;-79
2022/03/30 04:28:00;;;;;;;;;;;;;;;;;;2074121;28;19913;-79
2022/03/30 04:29:27;;;;;;;;;;;;;;;;;;2085138;28;19913;-79
2022/03/30 04:30:31;;;;;;;;;;;;;;;;;;2090693;28;19977;-81
2022/03/30 04:31:34;;;;;;;;;;;;;;;;;;2090519;28;19955;-80
2022/03/30 04:32:37;;;;;;;;;;;;;;;;;;2081803;28;19913;-80
2022/03/30 04:33:45;;;;;;;;;;;;;;;;;;2082263;28;19921;-80
2022/03/30 04:35:03;;;;;;;;;;;;;;;;;;2090633;28;20003;-80
2022/03/30 04:36:37;;;;;;;;;;;;;;;;;;;;;
2022/03/30 04:38:05;;;;;;;;;;;;;;;;;;2086635;28;19924;-80
2022/03/30 04:39:24;;;;;;;;;;;;;;;;;;2088388;28;19978;-80
2022/03/30 04:40:40;;;;;;;;;;;;;;;;;;2090716;28;19917;-80
2022/03/30 04:41:44;;;;;;;;;;;;;;;;;;2091696;28;19913;-80
2022/03/30 04:42:47;;;;;;;;;;;;;;;;;;2090263;28;20389;-79
2022/03/30 04:43:52;;;;;;;;;;;;;;;;;;2089965;28;19952;-79
2022/03/30 04:45:05;;;;;;;;;;;;;;;;;;2081929;28;19917;-80
2022/03/30 04:46:17;;;;;;;;;;;;;;;;;;2081664;28;19924;-79
2022/03/30 04:47:27;;;;;;;;;;;;;;;;;;2083204;28;19917;-79
2022/03/30 04:50:01;;;;;;;;;;;;;;;;;;2079673;28;19978;-80
2022/03/30 04:51:05;;;;;;;;;;;;;;;;;;2090281;28;19913;-79
2022/03/30 04:52:18;;;;;;;;;;;;;;;;;;2081741;28;20317;-80
2022/03/30 04:53:19;;;;;;;;;;;;;;;;;;2083481;28;19929;-80
2022/03/30 04:54:19;;;;;;;;;;;;;;;;;;2090283;28;19913;-80
2022/03/30 04:55:19;;;;;;;;;;;;;;;;;;2081725;28;19925;-80
2022/03/30 04:56:20;;;;;;;;;;;;;;;;;;2081556;28;19924;-80
2022/03/30 04:57:20;;;;;;;;;;;;;;;;;;2089984;28;19913;-80
2022/03/30 04:58:21;;;;;;;;;;;;;;;;;;2081464;28;19944;-80
2022/03/30 04:59:26;;;;;;;;;;;;;;;;;;2081542;28;19913;-80
2022/03/30 05:00:26;;;;;;;;;;;;;;;;;;2081515;28;20351;-80
2022/03/30 05:01:27;;;;;;;;;;;;;;;;;;2081569;28;19956;-80
2022/03/30 05:02:27;;;;;;;;;;;;;;;;;;2090101;28;20015;-80
2022/03/30 05:03:28;;;;;;;;;;;;;;;;;;2090108;28;19963;-80
2022/03/30 05:04:32;;;;;;;;;;;;;;;;;;2090238;28;19925;-80
2022/03/30 05:05:35;;;;;;;;;;;;;;;;;;2090045;28;19966;-80
2022/03/30 05:06:36;;;;;;;;;;;;;;;;;;2089763;28;20315;-80
2022/03/30 05:08:02;;;;;;;;;;;;;;;;;;2089801;28;19917;-79
2022/03/30 05:09:03;;;;;;;;;;;;;;;;;;2076842;28;19913;-81
2022/03/30 05:10:05;;;;;;;;;;;;;;;;;;2081603;28;19924;-80
2022/03/30 05:11:30;;;;;;;;;;;;;;;;;;2090541;28;19924;-80
2022/03/30 05:12:33;;;;;;;;;;;;;;;;;;2089376;28;19956;-80
2022/03/30 05:13:34;;;;;;;;;;;;;;;;;;2090214;28;19940;-80
2022/03/30 05:14:37;;;;;;;;;;;;;;;;;;2090083;28;19979;-80
2022/03/30 05:15:45;;;;;;;;;;;;;;;;;;2090221;28;19942;-80
2022/03/30 05:16:45;;;;;;;;;;;;;;;;;;2081507;28;20032;-80
2022/03/30 05:19:24;;;;;;;;;;;;;;;;;;2089977;28;19916;-80
2022/03/30 05:20:54;;;;;;;;;;;;;;;;;;;;;
2022/03/30 05:21:57;;;;;;;;;;;;;;;;;;2083715;28;20277;-80
2022/03/30 05:22:57;;;;;;;;;;;;;;;;;;2090110;28;20351;-80
2022/03/30 05:24:05;;;;;;;;;;;;;;;;;;2081366;28;19951;-81
2022/03/30 05:25:19;;;;;;;;;;;;;;;;;;;;;
2022/03/30 05:26:26;;;;;;;;;;;;;;;;;;2090170;28;19948;-80
2022/03/30 05:27:37;;;;;;;;;;;;;;;;;;2081280;28;20428;-81
2022/03/30 05:29:06;;;;;;;;;;;;;;;;;;2081260;28;20290;-81
2022/03/30 05:30:42;;;;;;;;;;;;;;;;;;2085550;28;19920;-81
2022/03/30 05:31:56;;;;;;;;;;;;;;;;;;;;;
2022/03/30 05:33:24;;;;;;;;;;;;;;;;;;2080616;28;20329;-81
2022/03/30 05:34:42;;;;;;;;;;;;;;;;;;2089472;28;19919;-80
2022/03/30 05:35:55;;;;;;;;;;;;;;;;;;;;;
2022/03/30 05:37:14;;;;;;;;;;;;;;;;;;2090139;28;19928;-80
2022/03/30 05:38:32;;;;;;;;;;;;;;;;;;2081252;28;20138;-80
2022/03/30 05:41:02;;;;;;;;;;;;;;;;;;2070708;28;19923;-80
2022/03/30 05:42:13;;;;;;;;;;;;;;;;;;;;;
2022/03/30 05:43:25;;;;;;;;;;;;;;;;;;2089915;28;19975;-80
2022/03/30 05:44:31;;;;;;;;;;;;;;;;;;2091435;28;19913;-80
2022/03/30 05:45:39;;;;;;;;;;;;;;;;;;2081073;28;19923;-80
2022/03/30 05:46:51;;;;;;;;;;;;;;;;;;2082912;28;19913;-80
2022/03/30 05:48:22;;;;;;;;;;;;;;;;;;2089991;28;19955;-80
2022/03/30 05:49:37;;;;;;;;;;;;;;;;;;2081260;28;20133;-81
2022/03/30 05:53:38;;;;;;;;;;;;;;;;;;;;;
2022/03/30 05:54:44;;;;;;;;;;;;;;;;;;2089840;28;19955;-81
2022/03/30 05:55:56;;;;;;;;;;;;;;;;;;2081210;28;19914;-80
2022/03/30 05:58:33;;;;;;;;;;;;;;;;;;2085211;28;20369;-80
2022/03/30 05:59:37;;;;;;;;;;;;;;;;;;2081315;28;19913;-80
2022/03/30 06:01:06;;;;;;;;;;;;;;;;;;;;;
2022/03/30 06:02:09;;;;;;;;;;;;;;;;;;2089779;28;19913;-80
2022/03/30 06:04:53;;;;;;;;;;;;;;;;;;2089949;28;19913;-80
2022/03/30 06:06:06;;;;;;;;;;;;;;;;;;;;;
2022/03/30 06:07:07;;;;;;;;;;;;;;;;;;2083133;28;20059;-81
2022/03/30 06:08:15;;;;;;;;;;;;;;;;;;2090098;28;20060;-80
2022/03/30 06:09:38;;;;;;;;;;;;;;;;;;;;;
2022/03/30 06:10:41;;;;;;;;;;;;;;;;;;2090012;28;20000;-81
2022/03/30 06:11:43;;;;;;;;;;;;;;;;;;2089889;28;19917;-80
2022/03/30 06:13:03;;;;;;;;;;;;;;;;;;2089795;28;20373;-81
2022/03/30 06:14:24;;;;;;;;;;;;;;;;;;2089997;28;20350;-80
2022/03/30 06:15:53;;;;;;;;;;;;;;;;;;2089320;28;20458;-81
2022/03/30 06:17:13;;;;;;;;;;;;;;;;;;2080125;28;19995;-82
2022/03/30 06:18:17;;;;;;;;;;;;;;;;;;2074856;28;20313;-81
2022/03/30 06:19:48;;;;;;;;;;;;;;;;;;;;;
2022/03/30 06:21:07;;;;;;;;;;;;;;;;;;;;;
2022/03/30 06:23:31;;;;;;;;;;;;;;;;;;2081568;28;20020;-82
2022/03/30 06:24:49;;;;;;;;;;;;;;;;;;2089731;28;19916;-82
2022/03/30 06:25:55;;;;;;;;;;;;;;;;;;2091099;28;19959;-82
2022/03/30 06:27:00;;;;;;;;;;;;;;;;;;2089668;28;19912;-81
2022/03/30 06:28:05;;;;;;;;;;;;;;;;;;2081022;28;20329;-81
2022/03/30 06:29:16;;;;;;;;;;;;;;;;;;2081792;28;19972;-81
2022/03/30 06:30:22;;;;;;;;;;;;;;;;;;2080991;28;19913;-81
2022/03/30 06:32:52;;;;;;;;;;;;;;;;;;2089660;28;19986;-81
2022/03/30 06:34:04;;;;;;;;;;;;;;;;;;;;;
2022/03/30 06:35:32;;;;;;;;;;;;;;;;;;;;;
2022/03/30 06:36:53;;;;;;;;;;;;;;;;;;;;;
2022/03/30 06:38:11;;;;;;;;;;;;;;;;;;2089889;28;20071;-81
2022/03/30 06:39:24;;;;;;;;;;;;;;;;;;2081200;28;20287;-81
2022/03/30 06:40:46;;;;;;;;;;;;;;;;;;2082805;28;20333;-81
2022/03/30 06:41:58;;;;;;;;;;;;;;;;;;2079742;28;20340;-81
2022/03/30 06:43:13;;;;;;;;;;;;;;;;;;2089643;28;19923;-81
2022/03/30 06:44:34;;;;;;;;;;;;;;;;;;2081080;28;19929;-80
2022/03/30 06:45:47;;;;;;;;;;;;;;;;;;2083314;28;20000;-81
2022/03/30 06:47:14;;;;;;;;;;;;;;;;;;2089745;28;20004;-81
2022/03/30 06:48:16;;;;;;;;;;;;;;;;;;2087787;28;19951;-81
2022/03/30 06:49:33;;;;;;;;;;;;;;;;;;2080980;28;19964;-81
2022/03/30 06:50:58;;;;;;;;;;;;;;;;;;2081037;28;19924;-81
2022/03/30 06:51:58;;;;;;;;;;;;;;;;;;2084002;28;19950;-81
2022/03/30 06:53:15;;;;;;;;;;;;;;;;;;;;;
2022/03/30 06:54:36;;;;;;;;;;;;;;;;;;2089635;28;19923;-82
2022/03/30 06:57:27;;;;;;;;;;;;;;;;;;;;;
2022/03/30 06:58:30;;;;;;;;;;;;;;;;;;2085574;28;19912;-82
2022/03/30 06:59:38;;;;;;;;;;;;;;;;;;2089524;28;19928;-82
2022/03/30 07:00:51;;;;;;;;;;;;;;;;;;;;;
2022/03/30 07:02:01;;;;;;;;;;;;;;;;;;;;;
2022/03/30 07:03:10;;;;;;;;;;;;;;;;;;2082090;28;20007;-82
2022/03/30 07:04:13;;;;;;;;;;;;;;;;;;2089578;28;19917;-82
2022/03/30 07:05:16;;;;;;;;;;;;;;;;;;2080946;28;19913;-81
2022/03/30 07:06:26;;;;;;;;;;;;;;;;;;2081217;28;19953;-82
2022/03/30 07:10:31;;;;;;;;;;;;;;;;;;2089648;28;20362;-82
2022/03/30 07:11:35;;;;;;;;;;;;;;;;;;2092309;28;20361;-81
2022/03/30 07:12:50;;;;;;;;;;;;;;;;;;;;;
2022/03/30 07:14:10;;;;;;;;;;;;;;;;;;2089487;28;20412;-82
2022/03/30 07:15:16;;;;;;;;;;;;;;;;;;2089717;28;20358;-82
2022/03/30 07:16:26;;;;;;;;;;;;;;;;;;2080667;28;20357;-82
2022/03/30 07:17:58;;;;;;;;;;;;;;;;;;2085009;28;19983;-82
2022/03/30 07:19:11;;;;;;;;;;;;;;;;;;;;;
2022/03/30 07:23:47;;;;;;;;;;;;;;;;;;2075393;28;20428;-81
2022/03/30 07:25:03;;;;;;;;;;;;;;;;;;;;;
2022/03/30 07:26:31;;;;;;;;;;;;;;;;;;;;;
2022/03/30 07:27:59;;;;;;;;;;;;;;;;;;;;;
2022/03/30 07:29:22;;;;;;;;;;;;;;;;;;2089187;28;19924;-80
2022/03/30 07:30:37;;;;;;;;;;;;;;;;;;2092942;28;19923;-80
2022/03/30 07:31:40;;;;;;;;;;;;;;;;;;2081777;28;20381;-80
2022/03/30 07:35:45;;;;;;;;;;;;;;;;;;;;;
2022/03/30 07:36:48;;;;;;;;;;;;;;;;;;2090931;28;19947;-80
2022/03/30 07:37:49;;;;;;;;;;;;;;;;;;2091083;28;19932;-80
2022/03/30 07:40:40;;;;;;;;;;;;;;;;;;;;;
2022/03/30 07:41:40;;;;;;;;;;;;;;;;;;2091290;28;19948;-80
2022/03/30 07:42:54;;;;;;;;;;;;;;;;;;2082267;28;20294;-80
2022/03/30 07:44:23;;;;;;;;;;;;;;;;;;2084054;28;19915;-81
2022/03/30 07:45:34;;;;;;;;;;;;;;;;;;;;;
2022/03/30 07:46:59;;;;;;;;;;;;;;;;;;2091109;28;20323;-81
2022/03/30 07:48:02;;;;;;;;;;;;;;;;;;2082103;28;19913;-81
2022/03/30 07:49:07;;;;;;;;;;;;;;;;;;2082886;28;20008;-81
2022/03/30 07:50:48;;;;;;;;;;;;;;;;;;;;;
2022/03/30 07:51:58;;;;;;;;;;;;;;;;;;;;;
2022/03/30 07:53:10;;;;;;;;;;;;;;;;;;;;;
2022/03/30 07:54:20;;;;;;;;;;;;;;;;;;2091146;28;20012;-80
2022/03/30 07:55:31;;;;;;;;;;;;;;;;;;;;;
2022/03/30 07:56:38;;;;;;;;;;;;;;;;;;2080475;28;19924;-80
2022/03/30 07:57:49;;;;;;;;;;;;;;;;;;;;;
2022/03/30 07:59:17;;;;;;;;;;;;;;;;;;;;;
2022/03/30 08:00:47;;;;;;;;;;;;;;;;;;2083370;28;19917;-81
2022/03/30 08:01:57;;;;;;;;;;;;;;;;;;2090862;28;19921;-79
2022/03/30 08:03:00;;;;;;;;;;;;;;;;;;2081944;28;19952;-80
2022/03/30 08:04:03;;;;;;;;;;;;;;;;;;2082401;28;19913;-80
2022/03/30 08:05:13;;;;;;;;;;;;;;;;;;2090932;28;20056;-80
2022/03/30 08:06:29;;;;;;;;;;;;;;;;;;;;;
2022/03/30 08:07:43;;;;;;;;;;;;;;;;;;2090855;28;20388;-80
2022/03/30 08:09:06;;;;;;;;;;;;;;;;;;2081971;28;19924;-80
2022/03/30 08:10:37;;;;;;;;;;;;;;;;;;2076790;28;20125;-81
2022/03/30 08:12:03;;;;;;;;;;;;;;;;;;2086175;28;20435;-78
2022/03/30 08:13:07;;;;;;;;;;;;;;;;;;2091365;28;19917;-80
2022/03/30 08:14:27;;;;;;;;;;;;;;;;;;2090924;28;19924;-80
2022/03/30 08:15:38;;;;;;;;;;;;;;;;;;2082128;28;19951;-81
2022/03/30 08:16:49;;;;;;;;;;;;;;;;;;2085386;28;20354;-81
2022/03/30 08:17:54;;;;;;;;;;;;;;;;;;2090867;28;19966;-81
2022/03/30 08:18:58;;;;;;;;;;;;;;;;;;2090848;28;19912;-80
2022/03/30 08:20:05;;;;;;;;;;;;;;;;;;2090911;28;20411;-80
2022/03/30 08:22:33;;;;;;;;;;;;;;;;;;2091040;28;19917;-80
2022/03/30 08:23:43;;;;;;;;;;;;;;;;;;2082072;28;19932;-80
2022/03/30 08:24:59;;;;;;;;;;;;;;;;;;;;;
2022/03/30 08:26:05;;;;;;;;;;;;;;;;;;2086574;28;19913;-81
2022/03/30 08:27:21;;;;;;;;;;;;;;;;;;;;;
2022/03/30 08:28:41;;;;;;;;;;;;;;;;;;;;;
2022/03/30 08:29:47;;;;;;;;;;;;;;;;;;2087785;28;20305;-80
2022/03/30 08:31:17;;;;;;;;;;;;;;;;;;2082235;28;20293;-81
2022/03/30 08:32:18;;;;;;;;;;;;;;;;;;2086498;28;19916;-79
2022/03/30 08:33:27;;;;;;;;;;;;;;;;;;2090945;28;19925;-80
2022/03/30 08:34:39;;;;;;;;;;;;;;;;;;2090901;28;19927;-80
2022/03/30 08:35:42;;;;;;;;;;;;;;;;;;2081848;28;19917;-80
2022/03/30 08:36:53;;;;;;;;;;;;;;;;;;;;;
2022/03/30 08:37:56;;;;;;;;;;;;;;;;;;2086911;28;20025;-80
2022/03/30 08:39:11;;;;;;;;;;;;;;;;;;2083753;28;19925;-79
2022/03/30 08:40:41;;;;;;;;;;;;;;;;;;;;;
2022/03/30 08:42:09;;;;;;;;;;;;;;;;;;;;;
2022/03/30 08:43:31;;;;;;;;;;;;;;;;;;2089715;28;20350;-80
2022/03/30 08:44:46;;;;;;;;;;;;;;;;;;;;;